Time;durP1;ratioP1;P1;durP2;ratioP2;P2;SDS_P1;SDS_P2;PMS_P1;PMS_P2;Temp;Humidity;BMP_temperature;BMP_pressure;BME280_temperature;BME280_humidity;BME280_pressure;Samples;Min_cycle;Max_cycle;Signal;HPM_P1;HPM_P2
2022/08/19 00:00:47;;;;;;;14.40;13.27;;;;;;;18.98;100.00;100046.53;5061454;28;20239;-81
2022/08/19 00:03:13;;;;;;;14.70;13.60;;;;;;;18.89;100.00;100038.28;5061863;28;20294;-81
2022/08/19 00:05:42;;;;;;;16.03;14.37;;;;;;;18.84;100.00;100022.72;5061676;28;20248;-80
2022/08/19 00:08:08;;;;;;;15.43;14.23;;;;;;;18.81;100.00;100020.25;5062810;28;20639;-80
2022/08/19 00:10:36;;;;;;;16.80;15.03;;;;;;;18.77;100.00;100023.97;5063596;28;20267;-79
2022/08/19 00:13:04;;;;;;;15.27;13.93;;;;;;;18.67;100.00;100021.03;5061909;28;20259;-80
2022/08/19 00:15:30;;;;;;;14.90;13.60;;;;;;;18.58;100.00;100025.09;5061043;28;20719;-80
2022/08/19 00:17:57;;;;;;;15.47;14.03;;;;;;;18.53;100.00;100037.75;5061024;28;20259;-80
2022/08/19 00:20:24;;;;;;;14.80;13.50;;;;;;;18.53;100.00;100040.38;5060908;28;20204;-80
2022/08/19 00:22:51;;;;;;;15.13;13.70;;;;;;;18.51;100.00;100044.03;5061113;28;20287;-82
2022/08/19 00:25:18;;;;;;;15.80;14.33;;;;;;;18.48;100.00;100037.13;5060594;28;20205;-80
2022/08/19 00:27:46;;;;;;;14.37;13.27;;;;;;;18.38;100.00;100039.47;5061424;28;20206;-80
2022/08/19 00:30:13;;;;;;;14.73;13.37;;;;;;;18.42;100.00;100046.28;5061041;28;20233;-79
2022/08/19 00:32:40;;;;;;;14.73;13.53;;;;;;;18.38;100.00;100057.97;5061314;28;20251;-80
2022/08/19 00:35:08;;;;;;;15.57;14.20;;;;;;;18.37;100.00;100058.03;5061029;28;20225;-80
2022/08/19 00:37:34;;;;;;;14.63;13.40;;;;;;;18.33;100.00;100052.06;5060875;28;20205;-80
2022/08/19 00:40:02;;;;;;;14.67;13.47;;;;;;;18.31;100.00;100059.25;5061097;28;20209;-81
2022/08/19 00:42:29;;;;;;;13.60;12.47;;;;;;;18.25;100.00;100065.75;5060558;28;20792;-82
2022/08/19 00:44:56;;;;;;;14.50;13.20;;;;;;;18.19;100.00;100055.50;5061086;28;20328;-81
2022/08/19 00:47:23;;;;;;;14.53;13.33;;;;;;;18.15;100.00;100059.25;5060391;28;20207;-81
2022/08/19 00:49:52;;;;;;;14.43;13.20;;;;;;;18.15;100.00;100053.97;5060178;28;20213;-81
2022/08/19 00:52:24;;;;;;;14.47;13.20;;;;;;;18.11;100.00;100056.91;5060505;28;20267;-81
2022/08/19 00:54:53;;;;;;;15.20;13.73;;;;;;;18.14;100.00;100069.94;5060286;28;20211;-81
2022/08/19 00:57:24;;;;;;;14.93;13.70;;;;;;;18.15;100.00;100072.47;5061298;28;20276;-81
2022/08/19 00:59:54;;;;;;;13.67;12.57;;;;;;;18.11;100.00;100076.22;5060867;28;20236;-81
2022/08/19 01:02:23;;;;;;;14.50;13.37;;;;;;;18.15;100.00;100069.81;5060981;28;20189;-80
2022/08/19 01:04:49;;;;;;;14.57;13.17;;;;;;;18.15;100.00;100069.81;5060635;28;20209;-80
2022/08/19 01:07:16;;;;;;;13.83;12.80;;;;;;;18.21;100.00;100080.03;5060306;28;20264;-81
2022/08/19 01:09:43;;;;;;;14.47;13.30;;;;;;;18.23;100.00;100094.03;5060839;28;20594;-81
2022/08/19 01:12:09;;;;;;;14.70;13.53;;;;;;;18.20;100.00;100099.50;5060679;28;20216;-81
2022/08/19 01:14:38;;;;;;;14.40;13.10;;;;;;;18.18;100.00;100095.25;5060927;28;20205;-82
2022/08/19 01:17:05;;;;;;;16.70;13.70;;;;;;;18.12;100.00;100085.03;5059814;28;20258;-81
2022/08/19 01:19:38;;;;;;;14.07;12.83;;;;;;;18.24;100.00;100074.59;5059757;28;20213;-81
2022/08/19 01:22:09;;;;;;;14.20;12.80;;;;;;;18.30;100.00;100088.41;5060728;28;20224;-80
2022/08/19 01:24:37;;;;;;;13.23;11.90;;;;;;;18.37;100.00;100087.13;5060259;28;20205;-81
2022/08/19 01:27:05;;;;;;;14.03;12.83;;;;;;;18.18;100.00;100077.59;5060900;28;20252;-80
2022/08/19 01:29:31;;;;;;;13.43;12.23;;;;;;;18.21;100.00;100076.56;5060609;28;20208;-81
2022/08/19 01:31:59;;;;;;;13.80;12.60;;;;;;;18.14;100.00;100067.28;5060156;28;20209;-81
2022/08/19 01:34:25;;;;;;;14.33;13.07;;;;;;;18.02;100.00;100064.41;5059763;28;20225;-81
2022/08/19 01:36:52;;;;;;;13.17;12.17;;;;;;;18.09;100.00;100067.53;5060099;28;20200;-80
2022/08/19 01:39:21;;;;;;;14.73;13.23;;;;;;;18.15;100.00;100072.47;5060383;28;20254;-81
2022/08/19 01:41:49;;;;;;;13.30;12.30;;;;;;;18.05;100.00;100077.41;5060248;28;20205;-81
2022/08/19 01:44:16;;;;;;;13.50;12.33;;;;;;;18.14;100.00;100070.78;5060054;28;20225;-80
2022/08/19 01:46:44;;;;;;;14.57;13.37;;;;;;;18.10;100.00;100073.69;5059719;28;20286;-81
2022/08/19 01:49:11;;;;;;;13.30;12.30;;;;;;;18.03;100.00;100060.81;5060364;28;20249;-81
2022/08/19 01:51:38;;;;;;;14.80;13.40;;;;;;;18.03;100.00;100059.97;5059348;28;20250;-81
2022/08/19 01:54:05;;;;;;;13.70;12.60;;;;;;;18.19;100.00;100059.94;5059064;28;20252;-81
2022/08/19 01:56:31;;;;;;;14.43;13.23;;;;;;;18.12;100.00;100069.19;5059985;28;20200;-82
2022/08/19 01:59:03;;;;;;;13.97;12.77;;;;;;;18.16;100.00;100079.47;5059513;28;20217;-82
2022/08/19 02:01:32;;;;;;;13.97;12.80;;;;;;;18.15;100.00;100069.00;5059449;28;20205;-82
2022/08/19 02:04:00;;;;;;;15.27;13.80;;;;;;;18.17;100.00;100075.03;5059423;28;20590;-82
2022/08/19 02:06:26;;;;;;;13.87;12.77;;;;;;;18.17;100.00;100069.75;5058926;28;20255;-81
2022/08/19 02:08:53;;;;;;;13.77;12.67;;;;;;;18.13;100.00;100071.72;5060314;28;20288;-81
2022/08/19 02:11:21;;;;;;;13.97;12.87;;;;;;;18.26;100.00;100079.81;5059397;28;20210;-81
2022/08/19 02:13:49;;;;;;;13.90;12.30;;;;;;;18.38;100.00;100079.09;5058747;28;20233;-81
2022/08/19 02:16:17;;;;;;;13.80;12.47;;;;;;;18.38;99.77;100091.47;5059011;28;20659;-81
2022/08/19 02:18:43;;;;;;;13.23;12.13;;;;;;;18.42;98.87;100095.66;5060414;28;20201;-82
2022/08/19 02:21:10;;;;;;;13.33;12.33;;;;;;;18.39;99.74;100080.81;5057236;28;20197;-78
2022/08/19 02:23:37;;;;;;;14.60;13.30;;;;;;;18.17;100.00;100078.53;5058015;28;20228;-79
2022/08/19 02:26:03;;;;;;;14.00;12.87;;;;;;;18.10;100.00;100048.13;5057287;28;20251;-80
2022/08/19 02:28:30;;;;;;;15.17;13.87;;;;;;;18.14;100.00;100054.09;5057242;28;20659;-81
2022/08/19 02:30:56;;;;;;;14.63;13.43;;;;;;;18.01;100.00;100051.28;5057241;28;20550;-78
2022/08/19 02:33:24;;;;;;;14.83;13.43;;;;;;;18.04;100.00;100059.03;5057146;28;20287;-79
2022/08/19 02:35:50;;;;;;;14.53;13.47;;;;;;;18.12;100.00;100056.81;5056733;28;20204;-80
2022/08/19 02:38:26;;;;;;;14.23;13.23;;;;;;;18.23;100.00;100053.53;5057822;28;20213;-80
2022/08/19 02:40:55;;;;;;;14.10;12.77;;;;;;;18.36;99.39;100072.22;5057224;28;20259;-81
2022/08/19 02:43:22;;;;;;;13.17;12.00;;;;;;;18.50;98.66;100093.41;5057276;28;20231;-79
2022/08/19 02:45:49;;;;;;;13.33;12.23;;;;;;;18.62;97.30;100118.28;5057516;28;20243;-79
2022/08/19 02:48:18;;;;;;;13.43;12.33;;;;;;;18.72;96.81;100137.13;5057464;28;20205;-79
2022/08/19 02:50:46;;;;;;;14.43;13.13;;;;;;;18.59;97.04;100139.59;5056946;28;20205;-80
2022/08/19 02:53:13;;;;;;;13.63;12.63;;;;;;;18.49;97.51;100130.50;5056873;28;20225;-80
2022/08/19 02:55:45;;;;;;;13.43;12.17;;;;;;;18.48;98.21;100126.16;5057030;28;20667;-81
2022/08/19 02:58:12;;;;;;;15.17;13.77;;;;;;;18.29;98.99;100107.84;5057490;28;20201;-79
2022/08/19 03:00:43;;;;;;;14.00;12.77;;;;;;;18.37;99.16;100097.69;5057264;28;20216;-81
2022/08/19 03:03:10;;;;;;;13.27;12.10;;;;;;;18.51;98.65;100100.38;5057343;28;20229;-79
2022/08/19 03:05:36;;;;;;;13.83;12.53;;;;;;;18.57;97.93;100112.41;5056439;28;20266;-81
2022/08/19 03:08:05;;;;;;;14.60;13.13;;;;;;;18.75;97.11;100119.28;5056402;28;20208;-80
2022/08/19 03:10:32;;;;;;;13.63;12.33;;;;;;;18.90;96.38;100137.88;5057333;28;20635;-79
2022/08/19 03:12:58;;;;;;;13.83;12.50;;;;;;;19.00;95.60;100158.41;5056944;28;20299;-80
2022/08/19 03:15:24;;;;;;;13.90;12.60;;;;;;;18.91;94.85;100179.22;5057039;28;20250;-81
2022/08/19 03:17:51;;;;;;;13.37;12.37;;;;;;;18.78;95.25;100176.44;5057645;28;20212;-80
2022/08/19 03:20:17;;;;;;;14.30;13.10;;;;;;;18.60;96.21;100170.41;5056673;28;20768;-82
2022/08/19 03:22:44;;;;;;;13.00;11.73;;;;;;;18.68;97.03;100146.16;5056761;28;20228;-82
2022/08/19 03:25:12;;;;;;;13.63;12.53;;;;;;;18.65;96.80;100134.84;5057103;28;20262;-80
2022/08/19 03:27:39;;;;;;;13.90;12.67;;;;;;;18.48;97.45;100120.88;5057424;28;20232;-80
2022/08/19 03:30:06;;;;;;;16.67;15.07;;;;;;;18.25;99.41;100080.72;5057134;28;20741;-82
2022/08/19 03:32:33;;;;;;;15.20;13.67;;;;;;;18.16;100.00;100052.22;5057581;28;20228;-81
2022/08/19 03:34:59;;;;;;;16.17;14.97;;;;;;;18.11;100.00;100041.03;5057294;28;20212;-79
2022/08/19 03:37:26;;;;;;;16.50;15.13;;;;;;;18.04;100.00;100022.06;5057462;28;20216;-80
2022/08/19 03:39:52;;;;;;;16.60;15.10;;;;;;;17.92;100.00;100022.72;5057838;28;20294;-82
2022/08/19 03:42:20;;;;;;;16.57;15.10;;;;;;;18.04;100.00;100022.06;5057223;28;20674;-81
2022/08/19 03:44:47;;;;;;;16.27;14.87;;;;;;;17.95;100.00;100028.69;5057220;28;20204;-79
2022/08/19 03:47:16;;;;;;;17.27;15.77;;;;;;;17.70;100.00;100017.75;5057328;28;20231;-80
2022/08/19 03:49:42;;;;;;;18.67;16.87;;;;;;;17.58;100.00;100004.31;5056638;28;20212;-81
2022/08/19 03:52:09;;;;;;;19.37;17.43;;;;;;;17.48;100.00;100005.75;5057072;28;20601;-80
2022/08/19 03:54:37;;;;;;;19.20;17.40;;;;;;;17.40;100.00;100002.66;5057921;28;20238;-80
2022/08/19 03:57:04;;;;;;;20.10;18.20;;;;;;;17.37;100.00;100002.84;5058115;28;20217;-82
2022/08/19 03:59:35;;;;;;;19.93;18.03;;;;;;;17.30;100.00;100019.94;5058269;28;20215;-81
2022/08/19 04:02:06;;;;;;;20.50;17.67;;;;;;;17.31;100.00;100026.94;5057867;28;20620;-80
2022/08/19 04:04:33;;;;;;;20.57;18.60;;;;;;;17.30;100.00;100033.13;5057740;28;20250;-81
2022/08/19 04:06:59;;;;;;;20.03;18.00;;;;;;;17.26;100.00;100046.50;5057367;28;20250;-81
2022/08/19 04:09:26;;;;;;;20.40;18.27;;;;;;;17.24;100.00;100058.03;5058031;28;20215;-81
2022/08/19 04:11:55;;;;;;;19.17;17.43;;;;;;;17.24;100.00;100066.84;5058374;28;20208;-79
2022/08/19 04:14:24;;;;;;;20.17;18.30;;;;;;;17.22;100.00;100073.97;5059442;28;20223;-79
2022/08/19 04:16:53;;;;;;;20.07;17.97;;;;;;;17.21;100.00;100066.97;5059318;28;20298;-80
2022/08/19 04:19:21;;;;;;;20.70;18.60;;;;;;;17.30;100.00;100063.00;5062134;28;20541;-81
2022/08/19 04:21:50;;;;;;;20.00;18.10;;;;;;;17.27;100.00;100060.53;5052954;28;20210;-80
2022/08/19 04:24:18;;;;;;;21.90;18.47;;;;;;;17.27;100.00;100063.16;5061229;28;20253;-82
2022/08/19 04:26:45;;;;;;;24.80;18.73;;;;;;;17.29;100.00;100068.38;5061383;28;20228;-81
2022/08/19 04:29:15;;;;;;;20.67;18.10;;;;;;;17.29;100.00;100071.84;5060801;28;20619;-81
2022/08/19 04:31:43;;;;;;;20.30;18.23;;;;;;;17.28;100.00;100085.97;5061395;28;20207;-83
2022/08/19 04:34:13;;;;;;;19.50;17.60;;;;;;;17.24;100.00;100092.34;5061398;28;20219;-82
2022/08/19 04:36:44;;;;;;;18.87;16.70;;;;;;;17.22;100.00;100096.84;5060814;28;20635;-83
2022/08/19 04:39:14;;;;;;;19.93;17.97;;;;;;;17.26;100.00;100099.25;5060987;28;20208;-82
2022/08/19 04:44:25;;;;;;;17.70;15.73;;;;;;;17.33;100.00;100098.94;5061290;28;20230;-83
2022/08/19 04:46:52;;;;;;;17.43;15.63;;;;;;;17.37;100.00;100096.03;5060996;28;20231;-83
2022/08/19 04:49:22;;;;;;;16.67;15.17;;;;;;;17.53;100.00;100103.16;5061157;28;20269;-83
2022/08/19 04:51:49;;;;;;;16.40;14.90;;;;;;;17.60;100.00;100112.44;5060381;28;20205;-83
2022/08/19 04:54:17;;;;;;;16.90;15.43;;;;;;;17.61;100.00;100117.63;5060664;28;20229;-82
2022/08/19 04:56:43;;;;;;;16.07;14.70;;;;;;;17.49;100.00;100112.16;5060587;28;20596;-82
2022/08/19 04:59:11;;;;;;;16.50;14.97;;;;;;;17.45;100.00;100108.84;5061431;28;20207;-82
2022/08/19 05:01:38;;;;;;;18.13;15.13;;;;;;;17.57;100.00;100105.53;5060979;28;20689;-82
2022/08/19 05:04:06;;;;;;;16.43;14.53;;;;;;;17.47;100.00;100105.19;5060697;28;20257;-81
2022/08/19 05:06:35;;;;;;;15.60;13.97;;;;;;;17.60;100.00;100102.75;5059830;28;20224;-81
2022/08/19 05:09:03;;;;;;;14.13;12.90;;;;;;;17.40;100.00;100098.53;5057988;28;20643;-83
2022/08/19 05:11:32;;;;;;;18.53;15.73;;;;;;;17.46;100.00;100089.41;5058479;28;20612;-81
2022/08/19 05:13:58;;;;;;;15.00;13.67;;;;;;;17.60;100.00;100086.03;5047646;28;20626;-82
2022/08/19 05:16:27;;;;;;;13.93;12.53;;;;;;;17.69;100.00;100097.91;5055606;28;20208;-80
2022/08/19 05:24:25;;;;;;;12.60;11.50;;;;;;;17.83;100.00;100105.94;5057524;28;20441;-81
2022/08/19 05:26:56;;;;;;;13.50;12.33;;;;;;;17.90;100.00;100109.97;5057540;28;20230;-80
2022/08/19 05:29:25;;;;;;;15.33;12.90;;;;;;;17.74;100.00;100112.56;5045153;28;20214;-80
2022/08/19 05:31:52;;;;;;;13.60;12.27;;;;;;;17.55;100.00;100110.03;5046198;28;20201;-81
2022/08/19 05:34:21;;;;;;;12.70;11.70;;;;;;;17.48;100.00;100098.09;5039154;28;20254;-82
2022/08/19 05:36:50;;;;;;;17.80;13.20;;;;;;;17.37;100.00;100105.75;5049470;28;20201;-81
2022/08/19 05:39:20;;;;;;;14.13;13.03;;;;;;;17.30;100.00;100104.34;5055141;28;20551;-83
2022/08/19 05:41:48;;;;;;;13.37;12.37;;;;;;;17.38;100.00;100108.31;5051812;28;20264;-81
2022/08/19 05:44:16;;;;;;;13.50;12.40;;;;;;;17.54;100.00;100100.44;5048873;28;20404;-82
2022/08/19 05:46:46;;;;;;;12.47;11.33;;;;;;;17.69;100.00;100104.03;5051041;28;20232;-82
2022/08/19 05:49:14;;;;;;;13.63;11.77;;;;;;;17.66;100.00;100127.97;5048932;28;20211;-82
2022/08/19 05:51:41;;;;;;;13.20;12.10;;;;;;;17.47;100.00;100126.28;5058640;28;20300;-82
2022/08/19 05:54:11;;;;;;;13.93;12.73;;;;;;;17.35;100.00;100119.03;5049555;28;20224;-80
2022/08/19 05:56:37;;;;;;;16.47;14.93;;;;;;;17.24;100.00;100105.53;5048371;28;20197;-80
2022/08/19 05:59:10;;;;;;;14.93;13.40;;;;;;;17.23;100.00;100098.56;5041044;28;20200;-80
2022/08/19 06:01:37;;;;;;;14.03;12.93;;;;;;;17.36;100.00;100090.84;5052321;28;20286;-81
2022/08/19 06:04:05;;;;;;;15.87;13.23;;;;;;;17.57;100.00;100100.25;5048317;28;20672;-79
2022/08/19 06:06:33;;;;;;;13.63;12.53;;;;;;;17.77;100.00;100119.47;5037610;28;20208;-81
2022/08/19 06:09:00;;;;;;;13.10;12.13;;;;;;;17.87;100.00;100141.81;5044132;28;20197;-80
2022/08/19 06:11:35;;;;;;;13.47;12.20;;;;;;;17.89;100.00;100147.88;5046653;28;20201;-80
2022/08/19 06:14:05;;;;;;;12.53;11.53;;;;;;;17.87;100.00;100152.38;5049355;28;20801;-80
2022/08/19 06:16:34;;;;;;;12.83;11.53;;;;;;;17.81;100.00;100166.72;5050041;28;20663;-79
2022/08/19 06:19:06;;;;;;;14.60;13.33;;;;;;;17.65;100.00;100160.56;5051203;28;20205;-82
2022/08/19 06:21:33;;;;;;;12.37;11.37;;;;;;;17.70;100.00;100162.94;5056472;28;20232;-79
2022/08/19 06:24:00;;;;;;;14.10;12.80;;;;;;;17.89;100.00;100176.06;5056108;28;20217;-81
2022/08/19 06:26:27;;;;;;;14.43;13.17;;;;;;;17.52;100.00;100172.69;5045622;28;20204;-79
2022/08/19 06:28:55;;;;;;;14.20;12.97;;;;;;;17.51;100.00;100160.44;5038435;28;20251;-80
2022/08/19 06:31:23;;;;;;;13.50;12.30;;;;;;;17.75;100.00;100153.00;5046463;28;20256;-81
2022/08/19 06:33:50;;;;;;;14.00;12.83;;;;;;;17.93;100.00;100169.69;5047849;28;20228;-80
2022/08/19 06:36:19;;;;;;;15.07;13.73;;;;;;;17.97;100.00;100187.91;5047614;28;20205;-81
2022/08/19 06:38:46;;;;;;;15.10;13.47;;;;;;;18.03;99.70;100202.59;5048039;28;20251;-82
2022/08/19 06:41:12;;;;;;;14.90;13.70;;;;;;;18.01;99.28;100207.09;5044826;28;20213;-81
2022/08/19 06:43:41;;;;;;;15.70;14.30;;;;;;;17.70;98.32;100221.91;5047858;28;20221;-81
2022/08/19 06:46:12;;;;;;;15.63;13.97;;;;;;;17.70;99.15;100213.97;5044635;28;20199;-81
2022/08/19 06:48:39;;;;;;;15.03;13.63;;;;;;;17.78;99.39;100203.00;5044679;28;20228;-80
2022/08/19 06:51:06;;;;;;;16.80;15.10;;;;;;;17.87;98.73;100218.41;5052907;28;20204;-81
2022/08/19 06:53:32;;;;;;;18.73;17.00;;;;;;;17.67;99.56;100207.06;5050038;28;20305;-79
2022/08/19 06:56:01;;;;;;;18.40;16.70;;;;;;;17.72;99.12;100217.41;5047101;28;20197;-81
2022/08/19 06:58:31;;;;;;;19.03;17.17;;;;;;;17.71;99.04;100215.69;5037018;28;20628;-80
2022/08/19 07:01:00;;;;;;;19.90;17.77;;;;;;;17.67;98.98;100227.34;5044454;28;20284;-80
2022/08/19 07:03:31;;;;;;;21.23;17.80;;;;;;;17.89;98.92;100228.88;5045932;28;20220;-82
2022/08/19 07:05:58;;;;;;;19.50;17.77;;;;;;;17.88;98.90;100222.75;5050148;28;20292;-80
2022/08/19 07:08:26;;;;;;;19.50;17.70;;;;;;;17.86;99.02;100225.47;5045724;28;20229;-80
2022/08/19 07:10:53;;;;;;;20.97;18.90;;;;;;;17.96;98.42;100231.13;5046724;28;20201;-80
2022/08/19 07:13:21;;;;;;;21.23;18.97;;;;;;;18.04;97.86;100251.84;5047450;28;20219;-81
2022/08/19 07:15:49;;;;;;;20.17;18.07;;;;;;;18.03;96.97;100274.75;5048749;28;20208;-82
2022/08/19 07:18:16;;;;;;;19.33;17.07;;;;;;;18.21;97.31;100272.91;5041438;28;20197;-81
2022/08/19 07:20:44;;;;;;;18.63;16.83;;;;;;;18.29;96.26;100288.38;5052576;28;20243;-80
2022/08/19 07:23:11;;;;;;;18.00;16.47;;;;;;;18.06;96.22;100292.25;5050663;28;20232;-80
2022/08/19 07:25:38;;;;;;;18.13;16.40;;;;;;;18.04;96.54;100291.47;5038568;28;20217;-81
2022/08/19 07:28:08;;;;;;;18.57;16.80;;;;;;;18.25;96.67;100285.06;5046816;28;20726;-82
2022/08/19 07:30:37;;;;;;;17.17;15.67;;;;;;;18.41;95.94;100305.34;5053353;28;20205;-82
2022/08/19 07:33:04;;;;;;;17.23;15.63;;;;;;;18.46;93.53;100337.69;5045648;28;20276;-81
2022/08/19 07:35:31;;;;;;;16.17;14.77;;;;;;;18.61;93.06;100368.59;5042264;28;20208;-80
2022/08/19 07:38:02;;;;;;;17.73;16.10;;;;;;;18.49;92.68;100385.09;5047828;28;20203;-82
2022/08/19 07:40:28;;;;;;;18.87;17.07;;;;;;;18.32;92.16;100404.50;5043527;28;20601;-81
2022/08/19 07:42:55;;;;;;;17.90;16.23;;;;;;;18.24;92.23;100404.88;5047385;28;20229;-81
2022/08/19 07:45:21;;;;;;;18.37;16.87;;;;;;;18.31;93.40;100394.84;5049696;28;20208;-81
2022/08/19 07:47:48;;;;;;;17.43;15.83;;;;;;;18.44;93.91;100366.00;5050194;28;20229;-81
2022/08/19 07:50:15;;;;;;;18.17;16.50;;;;;;;18.56;91.49;100399.69;5055286;28;20215;-80
2022/08/19 07:52:44;;;;;;;16.57;15.20;;;;;;;18.78;90.68;100430.28;5053806;28;20214;-80
2022/08/19 07:55:11;;;;;;;17.33;15.73;;;;;;;18.68;89.92;100440.50;5048956;28;20208;-81
2022/08/19 07:57:38;;;;;;;16.10;14.50;;;;;;;18.76;90.36;100429.53;5054577;28;20258;-81
2022/08/19 08:00:06;;;;;;;15.67;14.37;;;;;;;18.89;89.17;100445.63;5051029;28;20203;-82
2022/08/19 08:02:33;;;;;;;16.20;14.80;;;;;;;18.95;88.75;100472.63;5051324;28;20228;-81
2022/08/19 08:10:28;;;;;;;15.33;13.93;;;;;;;18.69;87.85;100512.75;5054393;28;20236;-81
2022/08/19 08:12:55;;;;;;;15.27;14.07;;;;;;;18.79;88.50;100500.75;5051671;28;20225;-81
2022/08/19 08:15:21;;;;;;;14.50;13.40;;;;;;;18.94;88.50;100481.47;5051640;28;20197;-81
2022/08/19 08:17:48;;;;;;;15.53;14.20;;;;;;;18.85;86.82;100509.28;5049620;28;20205;-81
2022/08/19 08:20:15;;;;;;;14.00;12.80;;;;;;;19.13;86.98;100504.31;5059873;28;20209;-81
2022/08/19 08:25:30;;;;;;;12.67;11.67;;;;;;;19.50;85.56;100534.91;5050148;28;20217;-81
2022/08/19 08:27:59;;;;;;;13.27;11.97;;;;;;;19.48;83.33;100591.56;5046136;28;20254;-81
2022/08/19 08:30:27;;;;;;;14.03;12.83;;;;;;;19.51;82.39;100626.66;5050191;28;20630;-81
2022/08/19 08:32:54;;;;;;;12.87;11.87;;;;;;;19.79;82.44;100619.91;5052355;28;20232;-81
2022/08/19 08:35:24;;;;;;;11.03;10.03;;;;;;;19.87;81.86;100646.00;5048623;28;20208;-81
2022/08/19 08:37:53;;;;;;;10.90;9.97;;;;;;;20.04;81.68;100637.97;5048980;28;20244;-81
2022/08/19 08:40:27;;;;;;;11.13;10.33;;;;;;;20.02;77.21;100749.38;5053132;28;20208;-80
2022/08/19 08:43:02;;;;;;;11.80;10.80;;;;;;;20.10;78.62;100745.41;5057666;28;20221;-81
2022/08/19 08:45:29;;;;;;;13.23;11.23;;;;;;;20.22;78.08;100769.50;5055418;28;20207;-81
2022/08/19 08:48:01;;;;;;;9.60;8.80;;;;;;;20.31;77.50;100777.88;5052800;28;20761;-81
2022/08/19 08:50:35;;;;;;;9.80;9.07;;;;;;;20.38;77.67;100764.22;5057063;28;20221;-79
2022/08/19 08:53:05;;;;;;;11.03;10.13;;;;;;;20.40;76.19;100799.44;5056773;28;20228;-80
2022/08/19 08:55:32;;;;;;;10.33;9.53;;;;;;;20.43;76.53;100799.31;5054453;28;20291;-82
2022/08/19 08:58:05;;;;;;;10.80;9.70;;;;;;;20.40;76.06;100806.56;5047622;28;20202;-80
2022/08/19 09:00:34;;;;;;;11.20;10.23;;;;;;;20.05;75.30;100809.28;5040763;28;20252;-81
2022/08/19 09:03:02;;;;;;;9.90;9.10;;;;;;;19.91;75.07;100823.25;5039762;28;20715;-81
2022/08/19 09:05:39;;;;;;;10.00;9.27;;;;;;;19.89;74.52;100819.81;5036480;28;20216;-80
2022/08/19 09:08:09;;;;;;;9.27;8.63;;;;;;;19.81;74.91;100793.72;5038439;28;20229;-80
2022/08/19 09:10:40;;;;;;;9.53;8.80;;;;;;;19.64;77.93;100727.50;5038948;28;20194;-80
2022/08/19 09:13:23;;;;;;;9.30;8.60;;;;;;;19.82;77.46;100709.81;5038823;28;20238;-81
2022/08/19 09:15:54;;;;;;;9.57;8.57;;;;;;;19.83;76.14;100725.63;5038789;28;20198;-80
2022/08/19 09:18:21;;;;;;;8.67;8.03;;;;;;;19.92;76.52;100726.06;5040319;28;20186;-81
2022/08/19 09:20:48;;;;;;;8.83;8.03;;;;;;;19.75;75.88;100746.38;5058678;28;20208;-80
2022/08/19 09:23:14;;;;;;;9.43;8.73;;;;;;;19.84;75.60;100760.91;5059543;28;20651;-79
2022/08/19 09:25:41;;;;;;;10.10;9.40;;;;;;;19.92;75.25;100739.31;5058096;28;20263;-80
2022/08/19 09:28:09;;;;;;;7.93;7.33;;;;;;;19.87;74.81;100768.72;5058815;28;20229;-81
2022/08/19 09:30:42;;;;;;;7.70;7.10;;;;;;;19.97;74.34;100784.97;5058874;28;20207;-81
2022/08/19 09:33:09;;;;;;;8.27;7.67;;;;;;;19.97;73.73;100806.19;5059496;28;20232;-80
2022/08/19 09:35:36;;;;;;;8.00;7.50;;;;;;;19.95;74.11;100808.91;5059208;28;20206;-81
2022/08/19 09:38:03;;;;;;;8.23;7.60;;;;;;;20.01;73.96;100797.97;5058429;28;20331;-81
2022/08/19 09:40:31;;;;;;;7.10;6.50;;;;;;;20.06;73.78;100803.06;5059240;28;20679;-81
2022/08/19 09:43:02;;;;;;;6.30;5.80;;;;;;;20.23;73.78;100818.06;5059001;28;20239;-81
2022/08/19 09:45:30;;;;;;;6.33;5.70;;;;;;;20.27;72.62;100824.91;5058878;28;20212;-80
2022/08/19 09:47:57;;;;;;;6.40;5.83;;;;;;;20.42;72.43;100826.75;5059132;28;20228;-81
2022/08/19 09:50:24;;;;;;;6.37;5.90;;;;;;;20.36;71.32;100850.09;5058567;28;20263;-81
2022/08/19 09:52:53;;;;;;;8.87;7.00;;;;;;;20.40;70.95;100864.91;5058964;28;20228;-81
2022/08/19 09:55:19;;;;;;;6.83;6.33;;;;;;;20.32;71.43;100857.34;5059686;28;20217;-80
2022/08/19 09:57:46;;;;;;;7.17;6.57;;;;;;;20.21;72.44;100833.19;5059421;28;20209;-80
2022/08/19 10:00:13;;;;;;;7.30;6.60;;;;;;;20.22;72.06;100830.47;5060292;28;20205;-81
2022/08/19 10:02:40;;;;;;;7.77;7.17;;;;;;;20.41;72.64;100800.31;5057997;28;20715;-80
2022/08/19 10:07:51;;;;;;;6.07;5.57;;;;;;;20.75;72.08;100799.34;5057448;28;20275;-80
2022/08/19 10:10:18;;;;;;;7.30;6.80;;;;;;;20.60;70.49;100863.84;5058512;28;20201;-79
2022/08/19 10:12:47;;;;;;;7.40;6.80;;;;;;;20.47;69.30;100887.47;5057309;28;20229;-80
2022/08/19 10:15:14;;;;;;;7.93;7.27;;;;;;;20.41;70.08;100867.44;5057388;28;20210;-79
2022/08/19 10:17:42;;;;;;;6.90;6.40;;;;;;;20.62;70.17;100838.94;5058147;28;20724;-78
2022/08/19 10:20:10;;;;;;;6.43;5.93;;;;;;;20.83;70.02;100857.28;5057644;28;20216;-80
2022/08/19 10:22:37;;;;;;;7.90;5.93;;;;;;;20.87;67.20;100919.88;5057824;28;20289;-79
2022/08/19 10:25:06;;;;;;;5.90;5.47;;;;;;;21.10;67.21;100953.13;5057890;28;20220;-81
2022/08/19 10:27:32;;;;;;;5.37;4.97;;;;;;;21.13;65.79;100999.88;5057787;28;20205;-81
2022/08/19 10:29:59;;;;;;;4.70;4.30;;;;;;;21.29;63.55;101048.56;5057829;28;20761;-80
2022/08/19 10:32:25;;;;;;;4.00;3.77;;;;;;;21.44;62.19;101107.13;5058214;28;20209;-80
2022/08/19 10:34:53;;;;;;;4.50;4.10;;;;;;;21.41;62.68;101106.31;5057165;28;20271;-80
2022/08/19 10:37:20;;;;;;;4.43;4.13;;;;;;;21.42;63.11;101086.78;5057583;28;20236;-78
2022/08/19 10:39:47;;;;;;;4.27;3.97;;;;;;;21.45;63.67;101059.25;5058178;28;20205;-80
2022/08/19 10:42:15;;;;;;;3.70;3.40;;;;;;;21.41;62.42;101055.88;5057961;28;20671;-80
2022/08/19 10:44:42;;;;;;;3.57;3.27;;;;;;;21.56;61.45;101050.69;5057672;28;20291;-80
2022/08/19 10:47:09;;;;;;;3.20;2.87;;;;;;;21.70;61.20;101060.53;5057695;28;20267;-81
2022/08/19 10:52:32;;;;;;;2.40;2.20;;;;;;;21.72;58.83;101149.00;5057681;28;20659;-80
2022/08/19 10:52:36;;;;;;;3.33;2.57;;;;;;;21.74;59.13;101163.06;5052927;28;20208;-80
2022/08/19 10:57:52;;;;;;;2.63;2.43;;;;;;;21.73;59.33;101140.97;5054826;28;20224;-80
2022/08/19 11:00:19;;;;;;;2.83;2.53;;;;;;;21.92;58.81;101145.25;5058046;28;20211;-80
2022/08/19 11:02:45;;;;;;;2.33;2.17;;;;;;;22.02;57.45;101162.41;5058152;28;20738;-81
2022/08/19 11:05:12;;;;;;;2.30;2.03;;;;;;;22.23;58.30;101155.03;5057842;28;20216;-80
2022/08/19 11:07:40;;;;;;;3.40;2.30;;;;;;;22.28;57.28;101163.66;5057167;28;20201;-80
2022/08/19 11:10:10;;;;;;;2.40;2.20;;;;;;;22.39;58.02;101173.69;5057647;28;20740;-80
2022/08/19 11:12:38;;;;;;;2.30;2.10;;;;;;;22.47;57.59;101147.50;5057892;28;20225;-81
2022/08/19 11:15:06;;;;;;;2.03;1.93;;;;;;;22.41;57.69;101140.72;5057978;28;20208;-81
2022/08/19 11:17:32;;;;;;;2.23;1.97;;;;;;;22.69;58.12;101117.81;5058039;28;20208;-80
2022/08/19 11:20:02;;;;;;;2.40;2.20;;;;;;;22.78;57.43;101108.47;5057810;28;20195;-81
2022/08/19 11:22:29;;;;;;;2.03;1.93;;;;;;;22.69;57.16;101122.28;5056783;28;20205;-81
2022/08/19 11:24:57;;;;;;;1.70;1.60;;;;;;;22.83;56.50;101134.78;5057961;28;20209;-81
2022/08/19 11:27:23;;;;;;;1.67;1.57;;;;;;;23.09;55.91;101155.44;5057956;28;20583;-81
2022/08/19 11:29:50;;;;;;;2.00;1.87;;;;;;;23.02;54.16;101228.66;5057975;28;20248;-81
2022/08/19 11:32:17;;;;;;;2.00;1.70;;;;;;;23.04;54.70;101247.22;5057638;28;20587;-81
2022/08/19 11:34:43;;;;;;;1.90;1.80;;;;;;;23.39;54.87;101202.50;5057515;28;20233;-81